Time;durP1;ratioP1;P1;durP2;ratioP2;P2;SDS_P1;SDS_P2;PMS_P1;PMS_P2;Temp;Humidity;BMP_temperature;BMP_pressure;BME280_temperature;BME280_humidity;BME280_pressure;Samples;Min_cycle;Max_cycle;Signal;HPM_P1;HPM_P2
2020/08/06 00:01:33;;;;;;;5.4;3;;;;;;;;;;;;;
2020/08/06 00:03:58;;;;;;;4.7;3.1;;;;;;;;;;;;;
2020/08/06 00:06:23;;;;;;;4.6;2.9;;;;;;;;;;;;;
2020/08/06 00:08:48;;;;;;;4;2.6;;;;;;;;;;;;;
2020/08/06 00:11:13;;;;;;;4.2;2.7;;;;;;;;;;;;;
2020/08/06 00:13:40;;;;;;;4.6;2.8;;;;;;;;;;;;;
2020/08/06 00:16:05;;;;;;;3.6;2.8;;;;;;;;;;;;;
2020/08/06 00:18:30;;;;;;;6.1;2.8;;;;;;;;;;;;;
2020/08/06 00:20:55;;;;;;;4.8;2.7;;;;;;;;;;;;;
2020/08/06 00:23:21;;;;;;;3;2.5;;;;;;;;;;;;;
2020/08/06 00:25:46;;;;;;;4.2;2.7;;;;;;;;;;;;;
2020/08/06 00:28:11;;;;;;;3;2.7;;;;;;;;;;;;;
2020/08/06 00:30:36;;;;;;;5.2;3.1;;;;;;;;;;;;;
2020/08/06 00:33:01;;;;;;;5.7;2.6;;;;;;;;;;;;;
2020/08/06 00:35:27;;;;;;;4.4;2.8;;;;;;;;;;;;;
2020/08/06 00:37:52;;;;;;;3.6;2.8;;;;;;;;;;;;;
2020/08/06 00:40:18;;;;;;;4.4;2.9;;;;;;;;;;;;;
2020/08/06 00:42:43;;;;;;;4.6;2.7;;;;;;;;;;;;;
2020/08/06 00:45:08;;;;;;;4.3;2.9;;;;;;;;;;;;;
2020/08/06 00:47:34;;;;;;;3.2;2.8;;;;;;;;;;;;;
2020/08/06 00:49:59;;;;;;;5.2;2.7;;;;;;;;;;;;;
2020/08/06 00:52:27;;;;;;;6.6;3.5;;;;;;;;;;;;;
2020/08/06 00:54:52;;;;;;;3.8;3;;;;;;;;;;;;;
2020/08/06 00:57:17;;;;;;;4.4;2.9;;;;;;;;;;;;;
2020/08/06 00:59:43;;;;;;;3.7;2.8;;;;;;;;;;;;;
2020/08/06 01:02:10;;;;;;;3.7;2.9;;;;;;;;;;;;;
2020/08/06 01:04:35;;;;;;;5.7;3.1;;;;;;;;;;;;;
2020/08/06 01:07:00;;;;;;;2.9;2.4;;;;;;;;;;;;;
2020/08/06 01:09:25;;;;;;;3.1;2.6;;;;;;;;;;;;;
2020/08/06 01:11:50;;;;;;;3.8;2.5;;;;;;;;;;;;;
2020/08/06 01:14:15;;;;;;;4.1;2.8;;;;;;;;;;;;;
2020/08/06 01:16:41;;;;;;;4.2;3;;;;;;;;;;;;;
2020/08/06 01:19:07;;;;;;;3.4;2.8;;;;;;;;;;;;;
2020/08/06 01:21:32;;;;;;;4.3;2.6;;;;;;;;;;;;;
2020/08/06 01:23:57;;;;;;;3.5;2.8;;;;;;;;;;;;;
2020/08/06 01:26:22;;;;;;;3.4;3;;;;;;;;;;;;;
2020/08/06 01:28:47;;;;;;;5.8;3;;;;;;;;;;;;;
2020/08/06 01:31:12;;;;;;;4;3;;;;;;;;;;;;;
2020/08/06 01:33:38;;;;;;;4.1;3;;;;;;;;;;;;;
2020/08/06 01:36:03;;;;;;;3.1;2.8;;;;;;;;;;;;;
2020/08/06 01:38:29;;;;;;;4.8;2.7;;;;;;;;;;;;;
2020/08/06 01:40:54;;;;;;;4.1;2.9;;;;;;;;;;;;;
2020/08/06 01:43:20;;;;;;;4.2;2.8;;;;;;;;;;;;;
2020/08/06 01:45:45;;;;;;;3.6;2.8;;;;;;;;;;;;;
2020/08/06 01:48:12;;;;;;;3.1;2.8;;;;;;;;;;;;;
2020/08/06 01:50:37;;;;;;;3;2.7;;;;;;;;;;;;;
2020/08/06 01:53:03;;;;;;;4;2.6;;;;;;;;;;;;;
2020/08/06 01:55:28;;;;;;;3.8;2.6;;;;;;;;;;;;;
2020/08/06 01:57:53;;;;;;;4.5;2.4;;;;;;;;;;;;;
2020/08/06 02:00:18;;;;;;;3.9;2.7;;;;;;;;;;;;;
2020/08/06 02:02:45;;;;;;;3.9;2.5;;;;;;;;;;;;;
2020/08/06 02:05:10;;;;;;;4.1;2.4;;;;;;;;;;;;;
2020/08/06 02:07:37;;;;;;;4.2;2.7;;;;;;;;;;;;;
2020/08/06 02:10:03;;;;;;;6.9;3.2;;;;;;;;;;;;;
2020/08/06 02:12:27;;;;;;;4.5;2.7;;;;;;;;;;;;;
2020/08/06 02:14:53;;;;;;;4.1;2.8;;;;;;;;;;;;;
2020/08/06 02:17:17;;;;;;;4.7;2.9;;;;;;;;;;;;;
2020/08/06 02:19:43;;;;;;;4.5;2.7;;;;;;;;;;;;;
2020/08/06 02:22:08;;;;;;;5.1;2.6;;;;;;;;;;;;;
2020/08/06 02:24:33;;;;;;;3.7;3;;;;;;;;;;;;;
2020/08/06 02:26:58;;;;;;;6.2;2.9;;;;;;;;;;;;;
2020/08/06 02:29:23;;;;;;;4.3;2.7;;;;;;;;;;;;;
2020/08/06 02:31:49;;;;;;;4.2;2.9;;;;;;;;;;;;;
2020/08/06 02:34:15;;;;;;;3.9;3;;;;;;;;;;;;;
2020/08/06 02:36:40;;;;;;;3;2.7;;;;;;;;;;;;;
2020/08/06 02:39:06;;;;;;;4.6;2.8;;;;;;;;;;;;;
2020/08/06 02:41:31;;;;;;;6;2.9;;;;;;;;;;;;;
2020/08/06 02:43:57;;;;;;;3.5;2.7;;;;;;;;;;;;;
2020/08/06 02:46:22;;;;;;;3.4;2.5;;;;;;;;;;;;;
2020/08/06 02:48:49;;;;;;;3.2;2.8;;;;;;;;;;;;;
2020/08/06 02:51:14;;;;;;;7.5;2.9;;;;;;;;;;;;;
2020/08/06 02:53:41;;;;;;;3.6;2.8;;;;;;;;;;;;;
2020/08/06 02:56:06;;;;;;;3.8;2.5;;;;;;;;;;;;;
2020/08/06 02:58:32;;;;;;;4.8;2.5;;;;;;;;;;;;;
2020/08/06 03:00:57;;;;;;;3;2.7;;;;;;;;;;;;;
2020/08/06 03:03:24;;;;;;;4.1;2.7;;;;;;;;;;;;;
2020/08/06 03:05:49;;;;;;;3;2.4;;;;;;;;;;;;;
2020/08/06 03:08:14;;;;;;;3.1;2.4;;;;;;;;;;;;;
2020/08/06 03:10:39;;;;;;;4.1;2.7;;;;;;;;;;;;;
2020/08/06 03:13:05;;;;;;;5.3;2.9;;;;;;;;;;;;;
2020/08/06 03:15:30;;;;;;;17.8;3.9;;;;;;;;;;;;;
2020/08/06 03:17:56;;;;;;;5.3;3.1;;;;;;;;;;;;;
2020/08/06 03:20:21;;;;;;;5.5;2.7;;;;;;;;;;;;;
2020/08/06 03:22:47;;;;;;;4.2;2.7;;;;;;;;;;;;;
2020/08/06 03:25:13;;;;;;;3.9;2.8;;;;;;;;;;;;;
2020/08/06 03:27:39;;;;;;;6.4;2.8;;;;;;;;;;;;;
2020/08/06 03:30:04;;;;;;;5.5;3;;;;;;;;;;;;;
2020/08/06 03:32:30;;;;;;;3.9;3;;;;;;;;;;;;;
2020/08/06 03:34:55;;;;;;;5.5;2.8;;;;;;;;;;;;;
2020/08/06 03:37:21;;;;;;;5.6;2.9;;;;;;;;;;;;;
2020/08/06 03:39:46;;;;;;;5;2.9;;;;;;;;;;;;;
2020/08/06 03:42:11;;;;;;;7.4;3.1;;;;;;;;;;;;;
2020/08/06 03:44:36;;;;;;;6.3;3.1;;;;;;;;;;;;;
2020/08/06 03:47:02;;;;;;;5.5;3.4;;;;;;;;;;;;;
2020/08/06 03:49:27;;;;;;;8.5;3.8;;;;;;;;;;;;;
2020/08/06 03:51:52;;;;;;;5.5;3.2;;;;;;;;;;;;;
2020/08/06 03:54:17;;;;;;;6.3;3.3;;;;;;;;;;;;;
2020/08/06 03:56:42;;;;;;;5.5;3;;;;;;;;;;;;;
2020/08/06 03:59:09;;;;;;;5.5;3.2;;;;;;;;;;;;;
2020/08/06 04:02:35;;;;;;;5.9;3.2;;;;;;;12.84;88.33789;940.9455;;;;
2020/08/06 04:05:00;;;;;;;4.8;2.7;;;;;;;12.84;88.14453;940.9478;;;;
2020/08/06 04:07:25;;;;;;;6.8;2.9;;;;;;;12.85;87.85938;940.9599;;;;
2020/08/06 04:09:54;;;;;;;7;3.3;;;;;;;12.71;88.59863;940.9628;;;;
2020/08/06 04:12:29;;;;;;;5.8;3;;;;;;;12.62;88.61426;940.9839;;;;
2020/08/06 04:14:55;;;;;;;6.6;3.4;;;;;;;12.57;88.97266;941.0066;;;;
2020/08/06 04:17:20;;;;;;;5.6;2.8;;;;;;;12.61;88.55566;940.9708;;;;
2020/08/06 04:19:46;;;;;;;5.3;3;;;;;;;12.47;89.20313;940.9908;;;;
2020/08/06 04:22:12;;;;;;;4.6;2.8;;;;;;;12.54;89.22852;941.0566;;;;
2020/08/06 04:24:37;;;;;;;5.1;2.9;;;;;;;12.58;88.98438;941.0417;;;;
2020/08/06 04:27:04;;;;;;;5.8;2.9;;;;;;;12.68;88.20117;941.053;;;;
2020/08/06 04:29:30;;;;;;;6.5;3.3;;;;;;;12.69;88.29688;941.0242;;;;
2020/08/06 04:32:01;;;;;;;10;3.4;;;;;;;12.78;88.0166;941.0631;;;;
2020/08/06 04:34:29;;;;;;;7.7;3.2;;;;;;;12.82;88.15234;941.0469;;;;
2020/08/06 04:36:54;;;;;;;6.1;3;;;;;;;12.85;87.95117;941.0454;;;;
2020/08/06 04:39:21;;;;;;;8.5;3.6;;;;;;;12.87;88.14941;941.0895;;;;
2020/08/06 04:41:49;;;;;;;9.3;3.4;;;;;;;13;87.48633;941.1412;;;;
2020/08/06 04:44:14;;;;;;;6.4;3.1;;;;;;;13.08;87.19238;941.1611;;;;
2020/08/06 04:46:41;;;;;;;4.8;3;;;;;;;13.1;87.5752;941.1859;;;;
2020/08/06 04:49:06;;;;;;;6.5;2.8;;;;;;;13.09;87.44727;941.1811;;;;
2020/08/06 04:51:31;;;;;;;11.1;3.4;;;;;;;13.19;87.3623;941.2194;;;;
2020/08/06 04:53:56;;;;;;;7.9;2.8;;;;;;;13.26;86.72363;941.1233;;;;
2020/08/06 04:56:23;;;;;;;4.6;2.7;;;;;;;13.32;86.60938;941.181;;;;
2020/08/06 04:58:49;;;;;;;12.6;3.1;;;;;;;13.15;86.56348;941.2134;;;;
2020/08/06 05:01:14;;;;;;;6.5;3;;;;;;;13.01;87.9834;941.22;;;;
2020/08/06 05:03:40;;;;;;;5.2;2.7;;;;;;;13.15;87.81543;941.2413;;;;
2020/08/06 05:06:05;;;;;;;9.2;3.1;;;;;;;13.32;86.71094;941.2601;;;;
2020/08/06 05:08:30;;;;;;;10;3.1;;;;;;;13.43;86.28418;941.2305;;;;
2020/08/06 05:11:00;;;;;;;13.3;3.6;;;;;;;13.47;86.28223;941.2842;;;;
2020/08/06 05:13:25;;;;;;;9.5;3;;;;;;;13.51;86.0127;941.3283;;;;
2020/08/06 05:15:50;;;;;;;12.4;3.4;;;;;;;13.49;85.79102;941.2978;;;;
2020/08/06 05:18:20;;;;;;;7.8;3;;;;;;;13.43;86.01953;941.3489;;;;
2020/08/06 05:20:45;;;;;;;18.6;3.6;;;;;;;13.43;86.27441;941.3209;;;;
2020/08/06 05:23:12;;;;;;;11.2;3.5;;;;;;;13.46;86.28027;941.3026;;;;
2020/08/06 05:25:37;;;;;;;7;3;;;;;;;13.51;85.78516;941.3308;;;;
2020/08/06 05:28:03;;;;;;;11.2;3.5;;;;;;;13.49;86.2168;941.4419;;;;
2020/08/06 05:30:33;;;;;;;9.5;3.1;;;;;;;13.73;87.77148;941.4412;;;;
2020/08/06 05:32:59;;;;;;;6.9;2.4;;;;;;;15.21;81.91797;941.4261;;;;
2020/08/06 05:35:24;;;;;;;9.2;2.3;;;;;;;17.1;73.81055;941.4422;;;;
2020/08/06 05:37:49;;;;;;;6.3;2;;;;;;;18.65;67.89551;941.4314;;;;
2020/08/06 05:40:14;;;;;;;6.3;1.9;;;;;;;19.99;62.45313;941.5186;;;;
2020/08/06 05:42:40;;;;;;;3.5;1.7;;;;;;;21.25;57.96582;941.4899;;;;
2020/08/06 05:45:05;;;;;;;5.1;1.7;;;;;;;22.31;55.05273;941.4792;;;;
2020/08/06 05:47:31;;;;;;;7.2;1.6;;;;;;;22.83;52.87402;941.4511;;;;
2020/08/06 05:49:57;;;;;;;3.1;1;;;;;;;22.99;51.37793;941.4692;;;;
2020/08/06 05:52:22;;;;;;;5.5;1.1;;;;;;;23.55;50.16113;941.4336;;;;
2020/08/06 05:54:47;;;;;;;4;1.3;;;;;;;23.69;50.53027;941.37;;;;
2020/08/06 05:57:12;;;;;;;2.8;1;;;;;;;24.95;46.74414;941.3973;;;;
2020/08/06 05:59:38;;;;;;;5.1;1.3;;;;;;;26.06;44.23438;941.3979;;;;
2020/08/06 06:02:03;;;;;;;2.9;1.1;;;;;;;26.42;43.32422;941.3472;;;;
2020/08/06 06:04:33;;;;;;;2;1.1;;;;;;;27.2;41.12207;941.3942;;;;
2020/08/06 06:06:58;;;;;;;3.4;1.1;;;;;;;27.11;40.71094;941.3458;;;;
2020/08/06 06:09:23;;;;;;;8;1.6;;;;;;;27.2;40.04297;941.2617;;;;
2020/08/06 06:11:48;;;;;;;3.3;1;;;;;;;26.43;41.82031;941.3176;;;;
2020/08/06 06:14:14;;;;;;;2;1.1;;;;;;;25.83;42.94824;941.264;;;;
2020/08/06 06:16:39;;;;;;;5.9;1.4;;;;;;;26.02;42.82324;941.3036;;;;
2020/08/06 06:19:04;;;;;;;2.6;1;;;;;;;26.55;41.20508;941.2958;;;;
2020/08/06 06:21:30;;;;;;;2.6;0.9;;;;;;;27.09;42.39258;941.2805;;;;
2020/08/06 06:23:55;;;;;;;1.7;0.9;;;;;;;27.3;40.63281;941.3161;;;;
2020/08/06 06:26:20;;;;;;;2.8;1.2;;;;;;;28.19;38.90723;941.2951;;;;
2020/08/06 06:28:45;;;;;;;3.3;1;;;;;;;28.65;39.01758;941.2992;;;;
2020/08/06 06:31:15;;;;;;;2;0.8;;;;;;;28.72;37.78711;941.2706;;;;
2020/08/06 06:33:40;;;;;;;2.3;0.8;;;;;;;28.74;38.2168;941.2596;;;;
2020/08/06 06:36:06;;;;;;;3;1;;;;;;;28.07;38.1709;941.2332;;;;
2020/08/06 06:38:31;;;;;;;3.3;1.1;;;;;;;27.78;40.99707;941.247;;;;
2020/08/06 06:40:59;;;;;;;1.8;1.1;;;;;;;28.01;40.26953;941.2497;;;;
2020/08/06 06:43:28;;;;;;;1.9;1;;;;;;;29;38.25098;941.3044;;;;
2020/08/06 06:45:58;;;;;;;1.9;0.9;;;;;;;29.3;37.99023;941.2719;;;;
2020/08/06 06:48:24;;;;;;;2.7;0.8;;;;;;;29.92;34.95313;941.2224;;;;
2020/08/06 06:50:54;;;;;;;3.6;1;;;;;;;29.36;36.06543;941.2961;;;;
2020/08/06 06:53:19;;;;;;;2.9;0.9;;;;;;;29.22;37.76953;941.2651;;;;
2020/08/06 06:55:46;;;;;;;1.4;0.7;;;;;;;29.84;36.3418;941.2786;;;;
2020/08/06 06:58:11;;;;;;;1.7;0.7;;;;;;;30.35;35.78613;941.3042;;;;
2020/08/06 07:00:43;;;;;;;1.1;0.7;;;;;;;31.65;32.43945;941.2202;;;;
2020/08/06 07:03:11;;;;;;;3.2;0.9;;;;;;;30.51;34.71191;941.2913;;;;
2020/08/06 07:05:36;;;;;;;2.2;0.8;;;;;;;31.6;32.54492;941.3053;;;;
2020/08/06 07:08:01;;;;;;;6.6;0.9;;;;;;;32.14;31.86426;941.3138;;;;
2020/08/06 07:10:29;;;;;;;1.3;0.8;;;;;;;32.13;32.77344;941.3258;;;;
2020/08/06 07:12:59;;;;;;;4;1.2;;;;;;;30.73;35.86426;941.287;;;;
2020/08/06 07:15:42;;;;;;;2.9;0.9;;;;;;;31.29;33.61133;941.293;;;;
2020/08/06 07:18:07;;;;;;;1.8;0.9;;;;;;;32.22;31.35352;941.1644;;;;
2020/08/06 07:20:32;;;;;;;1.6;0.9;;;;;;;31.52;31.89258;941.2239;;;;
2020/08/06 07:22:57;;;;;;;3.5;0.8;;;;;;;31.32;34.71387;941.2541;;;;
2020/08/06 07:25:27;;;;;;;2.3;0.9;;;;;;;31.67;33.96289;941.1973;;;;
2020/08/06 07:27:52;;;;;;;1.6;0.8;;;;;;;31.86;32.40723;941.186;;;;
2020/08/06 07:30:17;;;;;;;1.2;0.8;;;;;;;31.61;33.96973;941.1907;;;;
2020/08/06 07:32:42;;;;;;;2.6;0.9;;;;;;;32.24;31.59473;941.1336;;;;
2020/08/06 07:35:07;;;;;;;1.7;0.9;;;;;;;32.03;33.19922;941.1236;;;;
2020/08/06 07:37:32;;;;;;;1.8;0.9;;;;;;;33.16;31.4668;941.1847;;;;
2020/08/06 07:39:57;;;;;;;1.7;0.8;;;;;;;31.62;32.34277;941.182;;;;
2020/08/06 07:42:22;;;;;;;1.5;0.8;;;;;;;31.78;31.68262;941.1096;;;;
2020/08/06 07:44:49;;;;;;;1.2;0.8;;;;;;;31.84;30.89648;941.1482;;;;
2020/08/06 07:47:14;;;;;;;2.7;0.9;;;;;;;32.73;30.8125;941.1919;;;;
2020/08/06 07:49:39;;;;;;;2.7;1;;;;;;;33.01;33.31836;941.2167;;;;
2020/08/06 07:52:05;;;;;;;1;0.8;;;;;;;32.73;29.93652;941.241;;;;
2020/08/06 07:54:30;;;;;;;2.3;1;;;;;;;33.42;29.98145;941.2841;;;;
2020/08/06 07:56:55;;;;;;;1.2;0.7;;;;;;;33.3;30.45508;941.25;;;;
2020/08/06 07:59:23;;;;;;;6.5;0.9;;;;;;;32.82;31.61133;941.2267;;;;
2020/08/06 08:01:54;;;;;;;2.7;0.9;;;;;;;32.22;34.31543;941.1941;;;;
2020/08/06 08:04:20;;;;;;;3.1;0.9;;;;;;;33.38;33.14063;941.2092;;;;
2020/08/06 08:06:50;;;;;;;1.6;0.8;;;;;;;34.42;30.0957;941.2346;;;;
2020/08/06 08:09:16;;;;;;;2.6;0.8;;;;;;;34.63;28.41113;941.1945;;;;
2020/08/06 08:11:49;;;;;;;2.4;0.8;;;;;;;35.3;29.62305;941.2217;;;;
2020/08/06 08:14:14;;;;;;;3.8;1;;;;;;;33.59;33.03613;941.1931;;;;
2020/08/06 08:16:47;;;;;;;5.7;1.1;;;;;;;34.19;32.875;941.2172;;;;
2020/08/06 08:19:12;;;;;;;4.3;0.9;;;;;;;35.13;31.7832;941.2274;;;;
2020/08/06 08:21:46;;;;;;;5.4;1.2;;;;;;;36.01;29.34277;941.2017;;;;
2020/08/06 08:24:11;;;;;;;3;0.8;;;;;;;36.59;28.87207;941.2104;;;;
2020/08/06 08:26:37;;;;;;;3.4;0.9;;;;;;;37.16;27.45215;941.2143;;;;
2020/08/06 08:29:03;;;;;;;1.9;0.8;;;;;;;37.46;26.70703;941.2742;;;;
2020/08/06 08:31:35;;;;;;;1.5;0.6;;;;;;;37.88;27.05957;941.2516;;;;
2020/08/06 08:34:00;;;;;;;1;0.7;;;;;;;37.55;25.89941;941.2636;;;;
2020/08/06 08:36:26;;;;;;;1.7;0.8;;;;;;;37.51;26.7334;941.259;;;;
2020/08/06 08:38:51;;;;;;;1.4;0.6;;;;;;;37.65;25.7832;941.3464;;;;
2020/08/06 08:41:27;;;;;;;2.7;0.9;;;;;;;37.45;26.93652;941.3084;;;;
2020/08/06 08:43:52;;;;;;;2;1;;;;;;;37.96;25.89746;941.3226;;;;
2020/08/06 08:46:22;;;;;;;1.4;0.8;;;;;;;38.46;26.36328;941.3181;;;;
2020/08/06 08:48:47;;;;;;;2.4;0.9;;;;;;;38.1;26.17285;941.3189;;;;
2020/08/06 08:51:15;;;;;;;1.2;0.8;;;;;;;38.24;26.35156;941.3506;;;;
2020/08/06 08:53:42;;;;;;;0.7;0.6;;;;;;;38.09;25.48047;941.3209;;;;
2020/08/06 08:56:11;;;;;;;2.5;0.8;;;;;;;38.2;25.24316;941.3339;;;;
2020/08/06 08:58:37;;;;;;;5.1;0.9;;;;;;;37.87;25.28613;941.3445;;;;
2020/08/06 09:01:02;;;;;;;0.7;0.6;;;;;;;37.94;25.54492;941.3627;;;;
2020/08/06 09:03:27;;;;;;;1.8;0.7;;;;;;;37.93;25.9209;941.3276;;;;
2020/08/06 09:05:54;;;;;;;3.1;0.8;;;;;;;37.25;27.21582;941.3846;;;;
2020/08/06 09:08:20;;;;;;;2;0.8;;;;;;;37.43;26.07422;941.3631;;;;
2020/08/06 09:10:56;;;;;;;1.7;0.7;;;;;;;37.07;27.55566;941.377;;;;
2020/08/06 09:13:21;;;;;;;3.5;0.9;;;;;;;37.09;27.53418;941.3853;;;;
2020/08/06 09:15:46;;;;;;;2;0.7;;;;;;;36.25;28.22168;941.4045;;;;
2020/08/06 09:18:11;;;;;;;2.1;0.7;;;;;;;35.92;29.9043;941.3931;;;;
2020/08/06 09:20:39;;;;;;;1.9;0.9;;;;;;;35.45;29.95898;941.4039;;;;
2020/08/06 09:23:05;;;;;;;4.2;0.8;;;;;;;35.1;30.81738;941.3627;;;;
2020/08/06 09:25:30;;;;;;;1.9;0.9;;;;;;;34.35;32.33203;941.285;;;;
2020/08/06 09:27:55;;;;;;;2.6;0.8;;;;;;;33.62;33.94043;941.269;;;;
2020/08/06 09:30:35;;;;;;;2.4;0.8;;;;;;;33.33;34.71191;941.1981;;;;
2020/08/06 09:33:01;;;;;;;2;1.1;;;;;;;32.97;35.02051;941.1736;;;;
2020/08/06 09:35:28;;;;;;;2.6;1.1;;;;;;;32.01;36.45703;941.1234;;;;
2020/08/06 09:37:54;;;;;;;1.7;0.9;;;;;;;31.47;38.06543;941.1236;;;;
2020/08/06 09:40:19;;;;;;;3.7;1;;;;;;;31.25;40.03418;941.1064;;;;
2020/08/06 09:42:44;;;;;;;2.5;1;;;;;;;30.93;39.77734;941.1017;;;;
2020/08/06 09:45:09;;;;;;;1.7;0.9;;;;;;;30.57;40.47461;941.1097;;;;
2020/08/06 09:47:38;;;;;;;2.5;1;;;;;;;30.55;41.5127;941.1065;;;;
2020/08/06 09:50:04;;;;;;;2.2;1.2;;;;;;;30.8;39.55078;941.0778;;;;
2020/08/06 09:52:28;;;;;;;2.3;1;;;;;;;30.23;41.06543;941.0526;;;;
2020/08/06 09:54:53;;;;;;;1.7;1.1;;;;;;;30.14;43.14648;941.0347;;;;
2020/08/06 09:57:18;;;;;;;2.2;1;;;;;;;30.46;41.38477;941.0019;;;;
2020/08/06 09:59:47;;;;;;;4.5;0.8;;;;;;;30.26;39.91016;941.0066;;;;
2020/08/06 10:02:13;;;;;;;1.5;0.9;;;;;;;30.15;40.43652;940.9611;;;;
2020/08/06 10:04:38;;;;;;;1.8;0.9;;;;;;;29.78;41.76367;941.0074;;;;
2020/08/06 10:07:06;;;;;;;1.8;1.1;;;;;;;29.68;41.65918;941.0343;;;;
2020/08/06 10:09:31;;;;;;;3.6;1;;;;;;;29.7;43.03223;940.9828;;;;
2020/08/06 10:11:56;;;;;;;2.6;0.9;;;;;;;29.72;41.30469;941.0549;;;;
2020/08/06 10:14:22;;;;;;;0.9;0.8;;;;;;;30.1;41.91309;941.0756;;;;
2020/08/06 10:16:50;;;;;;;2;1.1;;;;;;;30.4;40.69824;941.0886;;;;
2020/08/06 10:19:15;;;;;;;2.1;0.9;;;;;;;30.42;39.09961;941.1119;;;;
2020/08/06 10:21:40;;;;;;;2.2;1;;;;;;;30.76;39.55957;941.087;;;;
2020/08/06 10:24:05;;;;;;;2.7;1;;;;;;;31.11;39.54297;941.1195;;;;
2020/08/06 10:26:31;;;;;;;3.4;1;;;;;;;31.25;39.80664;941.0982;;;;
2020/08/06 10:28:56;;;;;;;2.1;0.9;;;;;;;31.39;40.54883;941.1153;;;;
2020/08/06 10:31:21;;;;;;;3.4;1;;;;;;;31.38;38.40527;941.1127;;;;
2020/08/06 10:33:46;;;;;;;2;1;;;;;;;31.27;38.33594;941.1094;;;;
2020/08/06 10:36:11;;;;;;;2.4;1;;;;;;;31.18;39.54883;941.1559;;;;
2020/08/06 10:38:36;;;;;;;2.1;1;;;;;;;31.45;38.6377;941.1843;;;;
2020/08/06 10:41:12;;;;;;;1.3;1;;;;;;;30.87;40.31152;941.1083;;;;
2020/08/06 10:43:37;;;;;;;2;0.9;;;;;;;31.5;39.33691;941.1373;;;;
2020/08/06 10:46:02;;;;;;;4.8;1.5;;;;;;;32.02;37.53613;941.118;;;;
2020/08/06 10:48:27;;;;;;;2.1;0.9;;;;;;;31.77;38.6543;941.0695;;;;
2020/08/06 10:50:52;;;;;;;2.4;1.3;;;;;;;32.49;38.64355;941.0639;;;;
2020/08/06 10:53:17;;;;;;;3.5;1.4;;;;;;;32.96;36.34082;941.097;;;;
2020/08/06 10:55:48;;;;;;;2.5;1.3;;;;;;;33.45;35.39355;941.0767;;;;
2020/08/06 10:58:13;;;;;;;2.5;1.2;;;;;;;33.82;34.46094;941.0911;;;;
2020/08/06 11:00:41;;;;;;;1.7;1;;;;;;;34.25;34.19141;941.0513;;;;
2020/08/06 11:03:06;;;;;;;4.7;1.6;;;;;;;34.37;34.10449;941.0831;;;;
2020/08/06 11:05:37;;;;;;;1.9;1;;;;;;;33.93;34.60059;941.0828;;;;
2020/08/06 11:08:02;;;;;;;4.5;1.1;;;;;;;33.6;34.24023;941.0977;;;;
2020/08/06 11:10:34;;;;;;;6.6;2.3;;;;;;;33.72;34.79004;941.0605;;;;
2020/08/06 11:12:59;;;;;;;3.3;1.3;;;;;;;33.7;35.2334;941.0734;;;;
2020/08/06 11:15:30;;;;;;;12.6;4.2;;;;;;;33.84;34.59473;941.1094;;;;
2020/08/06 11:17:55;;;;;;;2.4;1.1;;;;;;;33.73;34.10449;941.0927;;;;
2020/08/06 11:20:24;;;;;;;5.5;1.6;;;;;;;33.76;34.05859;941.0747;;;;
2020/08/06 11:22:49;;;;;;;5;1.7;;;;;;;33.66;34.31641;941.0848;;;;
2020/08/06 11:25:16;;;;;;;6.8;1.9;;;;;;;33.08;36.14648;941.0494;;;;
2020/08/06 11:27:41;;;;;;;4.9;1.9;;;;;;;32.97;36.36621;940.998;;;;
2020/08/06 11:30:06;;;;;;;3.8;1.5;;;;;;;32.92;36.71094;940.942;;;;
2020/08/06 11:32:32;;;;;;;3;1;;;;;;;32.7;36.5;940.9961;;;;
2020/08/06 11:34:57;;;;;;;2.2;1;;;;;;;32.23;37.51758;940.9247;;;;
2020/08/06 11:37:24;;;;;;;7.5;1.9;;;;;;;32.12;37.06543;940.8976;;;;
2020/08/06 11:39:49;;;;;;;2.2;1.1;;;;;;;31.72;38.30273;940.8441;;;;
2020/08/06 11:42:18;;;;;;;3.4;1.1;;;;;;;31.74;39.65723;940.8633;;;;
2020/08/06 11:44:43;;;;;;;2.4;1.1;;;;;;;30.88;39.78613;940.8571;;;;
2020/08/06 11:47:09;;;;;;;2.8;1.3;;;;;;;30.78;41.29395;940.8028;;;;
2020/08/06 11:49:34;;;;;;;2.8;1.4;;;;;;;30.7;41.72949;940.8404;;;;
2020/08/06 11:51:59;;;;;;;2.9;1.4;;;;;;;30.26;42.42871;940.8162;;;;
2020/08/06 11:54:24;;;;;;;2.7;1.4;;;;;;;29.57;43.74707;940.787;;;;
2020/08/06 11:56:55;;;;;;;4.7;1.8;;;;;;;29.23;44.88184;940.7809;;;;
2020/08/06 11:59:21;;;;;;;4.5;1.6;;;;;;;28.97;44.7959;940.8188;;;;
2020/08/06 12:01:46;;;;;;;9;1.8;;;;;;;28.99;45;940.793;;;;
2020/08/06 12:04:11;;;;;;;3.3;1.3;;;;;;;28.71;45.00781;940.8194;;;;
2020/08/06 12:06:38;;;;;;;3;1.4;;;;;;;28.64;46.72656;940.8372;;;;
2020/08/06 12:09:03;;;;;;;2.9;1.2;;;;;;;28.52;45.53613;940.851;;;;
2020/08/06 12:11:30;;;;;;;3.7;1.4;;;;;;;28.45;47.29004;940.8301;;;;
2020/08/06 12:13:56;;;;;;;2.9;1.7;;;;;;;28.33;47.28809;940.8108;;;;
2020/08/06 12:16:21;;;;;;;2.7;1.5;;;;;;;28.4;47.29492;940.8585;;;;
2020/08/06 12:18:49;;;;;;;2.3;1.3;;;;;;;28.53;45.96484;940.9193;;;;
2020/08/06 12:21:16;;;;;;;2.2;1.2;;;;;;;28.69;46.08887;940.9044;;;;
2020/08/06 12:23:41;;;;;;;4.3;1.1;;;;;;;28.62;48.36523;940.8617;;;;
2020/08/06 12:26:06;;;;;;;5.2;1.1;;;;;;;28.58;47.20703;940.9158;;;;
2020/08/06 12:28:33;;;;;;;3.4;1.1;;;;;;;28.57;47.78906;940.8645;;;;
2020/08/06 12:31:03;;;;;;;2.8;1;;;;;;;28.46;48.52637;940.861;;;;
2020/08/06 12:33:33;;;;;;;2.4;1.1;;;;;;;28.48;48.44531;940.8281;;;;
2020/08/06 12:36:00;;;;;;;1.6;1.1;;;;;;;28.22;49.16602;940.8152;;;;
2020/08/06 12:38:25;;;;;;;2.6;1.2;;;;;;;28.24;49.89258;940.7942;;;;
2020/08/06 12:40:56;;;;;;;2.2;1.5;;;;;;;28.07;48.00879;940.8088;;;;
2020/08/06 12:43:23;;;;;;;2.1;1.1;;;;;;;28.07;50.47949;940.7779;;;;
2020/08/06 12:45:51;;;;;;;2.8;1.3;;;;;;;27.97;49.80469;940.7318;;;;
2020/08/06 12:48:16;;;;;;;2;1.2;;;;;;;27.53;51.04883;940.7709;;;;
2020/08/06 12:50:41;;;;;;;2.2;1.2;;;;;;;27.67;51.89551;940.7404;;;;
2020/08/06 12:53:06;;;;;;;1.8;1.2;;;;;;;27.89;51.65918;940.7399;;;;
2020/08/06 12:55:32;;;;;;;3.9;1.1;;;;;;;28.08;49.31738;940.7109;;;;
2020/08/06 12:57:57;;;;;;;2.5;1.3;;;;;;;28.23;50.34375;940.7009;;;;
2020/08/06 13:00:36;;;;;;;2.1;1.2;;;;;;;28.18;50.27832;940.6752;;;;
2020/08/06 13:03:01;;;;;;;1.5;1.2;;;;;;;28.02;50.05957;940.7126;;;;
2020/08/06 13:05:27;;;;;;;1.8;1.2;;;;;;;27.95;50.88281;940.7363;;;;
2020/08/06 13:07:52;;;;;;;5;1.6;;;;;;;27.95;49.04102;940.6539;;;;
2020/08/06 13:10:20;;;;;;;4.2;1.9;;;;;;;27.93;51.27148;940.709;;;;
2020/08/06 13:12:45;;;;;;;2.3;1.2;;;;;;;27.88;51.25488;940.6736;;;;
2020/08/06 13:15:13;;;;;;;1.8;1.3;;;;;;;27.77;51.74023;940.6822;;;;
2020/08/06 13:17:40;;;;;;;1.7;1.4;;;;;;;27.65;50.55273;940.6573;;;;
2020/08/06 13:20:05;;;;;;;3.4;1.5;;;;;;;27.66;50.95605;940.6905;;;;
2020/08/06 13:22:33;;;;;;;3.2;1.5;;;;;;;27.73;49.97852;940.6209;;;;
2020/08/06 13:24:58;;;;;;;5.5;1.8;;;;;;;27.65;49.98242;940.5984;;;;
2020/08/06 13:27:23;;;;;;;4.4;1.7;;;;;;;27.63;49.86133;940.6002;;;;
2020/08/06 13:29:48;;;;;;;3.3;1.8;;;;;;;27.59;50.41504;940.5837;;;;
2020/08/06 13:32:13;;;;;;;2.8;1.6;;;;;;;27.56;50.625;940.541;;;;
2020/08/06 13:34:38;;;;;;;3.9;1.4;;;;;;;27.56;50.96973;940.4689;;;;
2020/08/06 13:37:07;;;;;;;2.5;1.2;;;;;;;27.51;51.2959;940.5374;;;;
2020/08/06 13:39:32;;;;;;;2.1;1.1;;;;;;;27.41;50.56055;940.5545;;;;
2020/08/06 13:41:59;;;;;;;2.7;1.3;;;;;;;27.43;52.14063;940.4864;;;;
2020/08/06 13:44:24;;;;;;;3.6;1.6;;;;;;;27.5;51.48438;940.5109;;;;
2020/08/06 13:46:49;;;;;;;3;1.4;;;;;;;27.33;51.40527;940.4645;;;;
2020/08/06 13:49:14;;;;;;;2.5;1.2;;;;;;;27.36;52.8916;940.5433;;;;
2020/08/06 13:51:44;;;;;;;2.7;1.3;;;;;;;27.43;52.11719;940.5005;;;;
2020/08/06 13:54:09;;;;;;;3.1;1.4;;;;;;;27.34;51.54883;940.4561;;;;
2020/08/06 13:56:34;;;;;;;5.2;1.2;;;;;;;27.29;49.97852;940.4414;;;;
2020/08/06 13:58:59;;;;;;;3.9;1.2;;;;;;;27.22;50.69336;940.4413;;;;
2020/08/06 14:01:29;;;;;;;4.3;1.2;;;;;;;27.29;51.68555;940.4961;;;;
2020/08/06 14:03:54;;;;;;;2.2;1.1;;;;;;;27.23;51.56152;940.4417;;;;
2020/08/06 14:06:19;;;;;;;2.6;1.6;;;;;;;27.13;50.79102;940.4802;;;;
2020/08/06 14:08:44;;;;;;;2;1.3;;;;;;;27.16;52.3584;940.3947;;;;
2020/08/06 14:11:15;;;;;;;3.2;1.7;;;;;;;27.14;51.7627;940.4233;;;;
2020/08/06 14:13:41;;;;;;;3.5;1.9;;;;;;;27.12;51.99805;940.4855;;;;
2020/08/06 14:16:07;;;;;;;2;1.4;;;;;;;26.99;51.98242;940.4345;;;;
2020/08/06 14:18:32;;;;;;;3.8;1.7;;;;;;;26.86;51.64746;940.4094;;;;
2020/08/06 14:20:59;;;;;;;1.9;1.3;;;;;;;26.84;51.51465;940.3892;;;;
2020/08/06 14:23:24;;;;;;;2.9;1.6;;;;;;;26.76;52.91602;940.3885;;;;
2020/08/06 14:25:49;;;;;;;3.9;1.6;;;;;;;26.55;53.02148;940.3358;;;;
2020/08/06 14:28:14;;;;;;;4;1.3;;;;;;;26.54;54.29785;940.3496;;;;
2020/08/06 14:30:41;;;;;;;1.7;1.2;;;;;;;26.49;53.55859;940.4208;;;;
2020/08/06 14:33:06;;;;;;;2.3;1.4;;;;;;;26.62;53.89355;940.3956;;;;
2020/08/06 14:35:31;;;;;;;3.1;1.2;;;;;;;26.62;53.74121;940.4074;;;;
2020/08/06 14:37:56;;;;;;;2.3;1.4;;;;;;;26.59;53.20313;940.405;;;;
2020/08/06 14:40:33;;;;;;;4.3;1.4;;;;;;;26.71;53.27637;940.3331;;;;
2020/08/06 14:42:58;;;;;;;2.5;1.2;;;;;;;26.72;52.43652;940.3444;;;;
2020/08/06 14:45:27;;;;;;;2.8;1.1;;;;;;;26.77;53.5459;940.3782;;;;
2020/08/06 14:47:52;;;;;;;3.3;1.3;;;;;;;26.76;54.05273;940.3591;;;;
2020/08/06 14:50:19;;;;;;;2.9;1.2;;;;;;;26.63;54.68848;940.4163;;;;
2020/08/06 14:52:44;;;;;;;3.1;1.2;;;;;;;26.69;54.30469;940.4119;;;;
2020/08/06 14:55:10;;;;;;;1.9;1.1;;;;;;;26.56;53.29395;940.329;;;;
2020/08/06 14:57:35;;;;;;;2.7;1.2;;;;;;;26.42;53.49219;940.3982;;;;
2020/08/06 15:00:00;;;;;;;2.5;1.2;;;;;;;26.35;52.95117;940.4285;;;;
2020/08/06 15:02:26;;;;;;;3.4;1.3;;;;;;;26.24;54.86523;940.4927;;;;
2020/08/06 15:04:51;;;;;;;3.9;1.2;;;;;;;26.21;54.30664;940.5231;;;;
2020/08/06 15:07:16;;;;;;;8.5;1.7;;;;;;;26.1;53.45313;940.5023;;;;
2020/08/06 15:09:41;;;;;;;4.3;1.5;;;;;;;26.21;55.63086;940.5525;;;;
2020/08/06 15:12:10;;;;;;;1.7;1.1;;;;;;;26.26;54.05176;940.5161;;;;
2020/08/06 15:14:35;;;;;;;3.3;1.2;;;;;;;26.3;54.57715;940.5691;;;;
2020/08/06 15:17:01;;;;;;;2.8;1.4;;;;;;;26.27;55;940.5564;;;;
2020/08/06 15:19:26;;;;;;;3.5;1.3;;;;;;;26.29;54.04492;940.5144;;;;
2020/08/06 15:21:51;;;;;;;1.9;1.2;;;;;;;26.14;54.23828;940.533;;;;
2020/08/06 15:24:16;;;;;;;2;1.3;;;;;;;26.15;54.22852;940.5673;;;;
2020/08/06 15:26:43;;;;;;;2.9;1.3;;;;;;;26.2;54.51855;940.498;;;;
2020/08/06 15:29:08;;;;;;;4.1;1.6;;;;;;;26.1;54.26953;940.61;;;;
2020/08/06 15:31:35;;;;;;;3.8;1.2;;;;;;;26.07;54.92871;940.5747;;;;
2020/08/06 15:34:00;;;;;;;2.6;1.2;;;;;;;26.08;54.53906;940.5697;;;;
2020/08/06 15:36:25;;;;;;;1.5;1.2;;;;;;;26.1;54.24609;940.6705;;;;